Terminal Aerodrome Forecast
Issued by NWS

Home | Current Version | Previous Version | Text Only | Print | Product List | Glossary On
Versions: 1 2 3 4 5 6 7 8 9 10 11 12 13 14 15
000
FTUS45 KCYS 250034 AAA
TAFRWL
TAF AMD
KRWL 250034Z 2501/2524 24018G26KT P6SM -SHRA SCT025 OVC040
      TEMPO 2501/2502 2SM -RA OVC025
     FM250300 25020G30KT P6SM BKN080
     FM251800 31015G25KT 4SM -RASN OVC015=

USA.gov is the U.S. government's official web portal to all federal, state and local government web resources and services.